sensor_id;sensor_type;location;lat;lon;timestamp;temperature;humidity
13229;DHT22;6680;53.220;10.402;2022-08-19T00:00:05;19.10;99.90
13229;DHT22;6680;53.220;10.402;2022-08-19T00:02:34;19.20;99.90
13229;DHT22;6680;53.220;10.402;2022-08-19T00:05:02;19.10;99.90
13229;DHT22;6680;53.220;10.402;2022-08-19T00:07:28;19.00;99.90
13229;DHT22;6680;53.220;10.402;2022-08-19T00:09:55;18.90;99.90
13229;DHT22;6680;53.220;10.402;2022-08-19T00:12:22;18.70;99.90
13229;DHT22;6680;53.220;10.402;2022-08-19T00:14:48;18.80;99.90
13229;DHT22;6680;53.220;10.402;2022-08-19T00:17:15;18.90;99.90
13229;DHT22;6680;53.220;10.402;2022-08-19T00:19:43;18.90;99.90
13229;DHT22;6680;53.220;10.402;2022-08-19T00:22:10;19.10;99.90
13229;DHT22;6680;53.220;10.402;2022-08-19T00:24:36;18.90;99.90
13229;DHT22;6680;53.220;10.402;2022-08-19T00:27:04;18.90;99.90
13229;DHT22;6680;53.220;10.402;2022-08-19T00:29:31;18.90;99.90
13229;DHT22;6680;53.220;10.402;2022-08-19T00:31:58;18.80;99.90
13229;DHT22;6680;53.220;10.402;2022-08-19T00:34:25;18.80;99.90
13229;DHT22;6680;53.220;10.402;2022-08-19T00:36:55;18.80;99.90
13229;DHT22;6680;53.220;10.402;2022-08-19T00:39:21;18.80;99.90
13229;DHT22;6680;53.220;10.402;2022-08-19T00:41:50;18.80;99.90
13229;DHT22;6680;53.220;10.402;2022-08-19T00:44:18;18.80;99.90
13229;DHT22;6680;53.220;10.402;2022-08-19T00:46:47;18.80;99.90
13229;DHT22;6680;53.220;10.402;2022-08-19T00:49:16;18.80;99.90
13229;DHT22;6680;53.220;10.402;2022-08-19T00:51:47;18.80;99.90
13229;DHT22;6680;53.220;10.402;2022-08-19T00:54:17;18.80;99.90
13229;DHT22;6680;53.220;10.402;2022-08-19T00:56:45;18.90;99.90
13229;DHT22;6680;53.220;10.402;2022-08-19T00:59:13;18.80;99.90
13229;DHT22;6680;53.220;10.402;2022-08-19T01:01:42;18.80;99.90
13229;DHT22;6680;53.220;10.402;2022-08-19T01:04:09;18.80;99.90
13229;DHT22;6680;53.220;10.402;2022-08-19T01:06:37;18.80;99.90
13229;DHT22;6680;53.220;10.402;2022-08-19T01:09:04;18.80;99.90
13229;DHT22;6680;53.220;10.402;2022-08-19T01:11:35;18.80;99.90
13229;DHT22;6680;53.220;10.402;2022-08-19T01:14:03;18.80;99.90
13229;DHT22;6680;53.220;10.402;2022-08-19T01:16:31;18.80;99.90
13229;DHT22;6680;53.220;10.402;2022-08-19T01:18:59;18.70;99.90
13229;DHT22;6680;53.220;10.402;2022-08-19T01:21:29;18.80;99.90
13229;DHT22;6680;53.220;10.402;2022-08-19T01:23:58;18.80;99.90
13229;DHT22;6680;53.220;10.402;2022-08-19T01:26:26;18.80;99.90
13229;DHT22;6680;53.220;10.402;2022-08-19T01:28:55;18.70;99.90
13229;DHT22;6680;53.220;10.402;2022-08-19T01:31:24;18.70;99.90
13229;DHT22;6680;53.220;10.402;2022-08-19T01:33:52;18.70;99.90
13229;DHT22;6680;53.220;10.402;2022-08-19T01:36:23;18.60;99.90
13229;DHT22;6680;53.220;10.402;2022-08-19T01:38:51;18.60;99.90
13229;DHT22;6680;53.220;10.402;2022-08-19T01:41:19;18.60;99.90
13229;DHT22;6680;53.220;10.402;2022-08-19T01:43:48;18.60;99.90
13229;DHT22;6680;53.220;10.402;2022-08-19T01:46:14;18.50;99.90
13229;DHT22;6680;53.220;10.402;2022-08-19T01:48:42;18.50;99.90
13229;DHT22;6680;53.220;10.402;2022-08-19T01:51:10;18.50;99.90
13229;DHT22;6680;53.220;10.402;2022-08-19T01:53:38;18.50;99.90
13229;DHT22;6680;53.220;10.402;2022-08-19T01:56:05;18.50;99.90
13229;DHT22;6680;53.220;10.402;2022-08-19T01:58:37;18.40;99.90
13229;DHT22;6680;53.220;10.402;2022-08-19T02:01:05;18.40;99.90
13229;DHT22;6680;53.220;10.402;2022-08-19T02:03:33;18.40;99.90
13229;DHT22;6680;53.220;10.402;2022-08-19T02:06:02;18.30;99.90
13229;DHT22;6680;53.220;10.402;2022-08-19T02:08:31;18.40;99.90
13229;DHT22;6680;53.220;10.402;2022-08-19T02:10:58;18.40;99.90
13229;DHT22;6680;53.220;10.402;2022-08-19T02:13:27;18.30;99.90
13229;DHT22;6680;53.220;10.402;2022-08-19T02:15:55;18.30;99.90
13229;DHT22;6680;53.220;10.402;2022-08-19T02:18:23;18.30;99.90
13229;DHT22;6680;53.220;10.402;2022-08-19T02:20:49;18.30;99.90
13229;DHT22;6680;53.220;10.402;2022-08-19T02:23:16;18.20;99.90
13229;DHT22;6680;53.220;10.402;2022-08-19T02:25:45;18.20;99.90
13229;DHT22;6680;53.220;10.402;2022-08-19T02:28:12;18.20;99.90
13229;DHT22;6680;53.220;10.402;2022-08-19T02:30:41;18.30;99.90
13229;DHT22;6680;53.220;10.402;2022-08-19T02:33:09;18.30;99.90
13229;DHT22;6680;53.220;10.402;2022-08-19T02:35:35;18.30;99.90
13229;DHT22;6680;53.220;10.402;2022-08-19T02:38:02;18.30;99.90
13229;DHT22;6680;53.220;10.402;2022-08-19T02:40:50;18.30;99.90
13229;DHT22;6680;53.220;10.402;2022-08-19T02:43:18;18.40;99.90
13229;DHT22;6680;53.220;10.402;2022-08-19T02:45:47;18.30;99.90
13229;DHT22;6680;53.220;10.402;2022-08-19T02:48:16;18.30;99.90
13229;DHT22;6680;53.220;10.402;2022-08-19T02:50:43;18.30;99.90
13229;DHT22;6680;53.220;10.402;2022-08-19T02:53:10;18.30;99.90
13229;DHT22;6680;53.220;10.402;2022-08-19T02:55:43;18.20;99.90
13229;DHT22;6680;53.220;10.402;2022-08-19T02:58:11;18.30;99.90
13229;DHT22;6680;53.220;10.402;2022-08-19T03:00:42;18.30;99.90
13229;DHT22;6680;53.220;10.402;2022-08-19T03:03:09;18.20;99.90
13229;DHT22;6680;53.220;10.402;2022-08-19T03:05:37;18.20;99.90
13229;DHT22;6680;53.220;10.402;2022-08-19T03:08:04;18.20;99.90
13229;DHT22;6680;53.220;10.402;2022-08-19T03:10:31;18.10;99.90
13229;DHT22;6680;53.220;10.402;2022-08-19T03:12:58;18.20;99.90
13229;DHT22;6680;53.220;10.402;2022-08-19T03:15:25;18.20;99.90
13229;DHT22;6680;53.220;10.402;2022-08-19T03:17:51;18.20;99.90
13229;DHT22;6680;53.220;10.402;2022-08-19T03:20:19;18.20;99.90
13229;DHT22;6680;53.220;10.402;2022-08-19T03:22:47;18.20;99.90
13229;DHT22;6680;53.220;10.402;2022-08-19T03:25:14;18.30;99.90
13229;DHT22;6680;53.220;10.402;2022-08-19T03:27:41;18.30;99.90
13229;DHT22;6680;53.220;10.402;2022-08-19T03:30:10;18.30;99.90
13229;DHT22;6680;53.220;10.402;2022-08-19T03:32:36;18.30;99.90
13229;DHT22;6680;53.220;10.402;2022-08-19T03:35:04;18.40;99.90
13229;DHT22;6680;53.220;10.402;2022-08-19T03:37:31;18.40;99.90
13229;DHT22;6680;53.220;10.402;2022-08-19T03:39:59;18.50;99.90
13229;DHT22;6680;53.220;10.402;2022-08-19T03:42:29;18.50;99.90
13229;DHT22;6680;53.220;10.402;2022-08-19T03:44:55;18.50;99.90
13229;DHT22;6680;53.220;10.402;2022-08-19T03:47:23;18.60;99.90
13229;DHT22;6680;53.220;10.402;2022-08-19T03:49:50;18.60;99.90
13229;DHT22;6680;53.220;10.402;2022-08-19T03:52:17;18.30;99.90
13229;DHT22;6680;53.220;10.402;2022-08-19T03:54:44;18.50;99.90
13229;DHT22;6680;53.220;10.402;2022-08-19T03:57:12;18.60;99.90
13229;DHT22;6680;53.220;10.402;2022-08-19T03:59:39;18.50;99.90
13229;DHT22;6680;53.220;10.402;2022-08-19T04:02:08;18.70;99.90
13229;DHT22;6680;53.220;10.402;2022-08-19T04:04:36;18.50;99.90
13229;DHT22;6680;53.220;10.402;2022-08-19T04:07:03;18.50;99.90
13229;DHT22;6680;53.220;10.402;2022-08-19T04:09:30;18.40;99.90
13229;DHT22;6680;53.220;10.402;2022-08-19T04:11:57;18.40;99.90
13229;DHT22;6680;53.220;10.402;2022-08-19T04:14:28;18.40;99.90
13229;DHT22;6680;53.220;10.402;2022-08-19T04:16:56;18.40;99.90
13229;DHT22;6680;53.220;10.402;2022-08-19T04:19:23;18.50;99.90
13229;DHT22;6680;53.220;10.402;2022-08-19T04:21:52;18.50;99.90
13229;DHT22;6680;53.220;10.402;2022-08-19T04:24:19;18.40;99.90
13229;DHT22;6680;53.220;10.402;2022-08-19T04:26:46;18.40;99.90
13229;DHT22;6680;53.220;10.402;2022-08-19T04:29:16;18.40;99.90
13229;DHT22;6680;53.220;10.402;2022-08-19T04:31:45;18.50;99.90
13229;DHT22;6680;53.220;10.402;2022-08-19T04:34:14;18.50;99.90
13229;DHT22;6680;53.220;10.402;2022-08-19T04:36:42;18.50;99.90
13229;DHT22;6680;53.220;10.402;2022-08-19T04:39:13;18.50;99.90
13229;DHT22;6680;53.220;10.402;2022-08-19T04:41:40;18.50;99.90
13229;DHT22;6680;53.220;10.402;2022-08-19T04:44:24;18.50;99.90
13229;DHT22;6680;53.220;10.402;2022-08-19T04:46:53;18.50;99.90
13229;DHT22;6680;53.220;10.402;2022-08-19T04:49:21;18.50;99.90
13229;DHT22;6680;53.220;10.402;2022-08-19T04:51:48;18.50;99.90
13229;DHT22;6680;53.220;10.402;2022-08-19T04:54:16;18.40;99.90
13229;DHT22;6680;53.220;10.402;2022-08-19T04:56:43;18.40;99.90
13229;DHT22;6680;53.220;10.402;2022-08-19T04:59:10;18.30;99.90
13229;DHT22;6680;53.220;10.402;2022-08-19T05:01:37;18.40;99.90
13229;DHT22;6680;53.220;10.402;2022-08-19T05:04:06;18.40;99.90
13229;DHT22;6680;53.220;10.402;2022-08-19T05:06:34;18.40;99.90
13229;DHT22;6680;53.220;10.402;2022-08-19T05:09:03;18.40;99.90
13229;DHT22;6680;53.220;10.402;2022-08-19T05:11:33;18.40;99.90
13229;DHT22;6680;53.220;10.402;2022-08-19T05:14:01;18.50;99.90
13229;DHT22;6680;53.220;10.402;2022-08-19T05:16:28;18.50;99.90
13229;DHT22;6680;53.220;10.402;2022-08-19T05:18:55;18.50;99.90
13229;DHT22;6680;53.220;10.402;2022-08-19T05:21:42;18.50;99.90
13229;DHT22;6680;53.220;10.402;2022-08-19T05:24:26;18.50;99.90
13229;DHT22;6680;53.220;10.402;2022-08-19T05:26:55;18.50;99.90
13229;DHT22;6680;53.220;10.402;2022-08-19T05:29:26;18.50;99.90
13229;DHT22;6680;53.220;10.402;2022-08-19T05:31:53;18.50;99.90
13229;DHT22;6680;53.220;10.402;2022-08-19T05:34:22;18.50;99.90
13229;DHT22;6680;53.220;10.402;2022-08-19T05:36:53;18.60;99.90
13229;DHT22;6680;53.220;10.402;2022-08-19T05:39:22;18.60;99.90
13229;DHT22;6680;53.220;10.402;2022-08-19T05:41:51;18.50;99.90
13229;DHT22;6680;53.220;10.402;2022-08-19T05:44:19;18.50;99.90
13229;DHT22;6680;53.220;10.402;2022-08-19T05:46:46;18.60;99.90
13229;DHT22;6680;53.220;10.402;2022-08-19T05:49:13;18.60;99.90
13229;DHT22;6680;53.220;10.402;2022-08-19T05:51:41;18.60;99.90
13229;DHT22;6680;53.220;10.402;2022-08-19T05:54:09;18.60;99.90
13229;DHT22;6680;53.220;10.402;2022-08-19T05:56:39;18.60;99.90
13229;DHT22;6680;53.220;10.402;2022-08-19T05:59:07;18.60;99.90
13229;DHT22;6680;53.220;10.402;2022-08-19T06:01:35;18.70;99.90
13229;DHT22;6680;53.220;10.402;2022-08-19T06:04:03;18.70;99.90
13229;DHT22;6680;53.220;10.402;2022-08-19T06:06:29;18.70;99.90
13229;DHT22;6680;53.220;10.402;2022-08-19T06:08:56;18.80;99.90
13229;DHT22;6680;53.220;10.402;2022-08-19T06:11:32;18.80;99.90
13229;DHT22;6680;53.220;10.402;2022-08-19T06:14:01;18.80;99.90
13229;DHT22;6680;53.220;10.402;2022-08-19T06:16:29;18.80;99.90
13229;DHT22;6680;53.220;10.402;2022-08-19T06:18:59;18.80;99.90
13229;DHT22;6680;53.220;10.402;2022-08-19T06:21:27;18.90;99.90
13229;DHT22;6680;53.220;10.402;2022-08-19T06:23:55;19.00;99.90
13229;DHT22;6680;53.220;10.402;2022-08-19T06:26:23;19.00;99.90
13229;DHT22;6680;53.220;10.402;2022-08-19T06:28:50;19.10;99.90
13229;DHT22;6680;53.220;10.402;2022-08-19T06:31:22;19.00;99.90
13229;DHT22;6680;53.220;10.402;2022-08-19T06:33:50;19.00;99.90
13229;DHT22;6680;53.220;10.402;2022-08-19T06:36:20;19.00;99.90
13229;DHT22;6680;53.220;10.402;2022-08-19T06:38:47;18.90;99.90
13229;DHT22;6680;53.220;10.402;2022-08-19T06:41:13;18.90;99.90
13229;DHT22;6680;53.220;10.402;2022-08-19T06:43:41;18.90;99.90
13229;DHT22;6680;53.220;10.402;2022-08-19T06:46:11;18.80;99.90
13229;DHT22;6680;53.220;10.402;2022-08-19T06:48:38;18.80;99.90
13229;DHT22;6680;53.220;10.402;2022-08-19T06:51:05;18.90;99.90
13229;DHT22;6680;53.220;10.402;2022-08-19T06:53:32;19.00;99.90
13229;DHT22;6680;53.220;10.402;2022-08-19T06:55:58;19.00;99.90
13229;DHT22;6680;53.220;10.402;2022-08-19T06:58:28;18.90;99.90
13229;DHT22;6680;53.220;10.402;2022-08-19T07:00:59;19.00;99.90
13229;DHT22;6680;53.220;10.402;2022-08-19T07:03:29;19.00;99.90
13229;DHT22;6680;53.220;10.402;2022-08-19T07:05:56;19.00;99.90
13229;DHT22;6680;53.220;10.402;2022-08-19T07:08:23;19.00;99.90
13229;DHT22;6680;53.220;10.402;2022-08-19T07:10:49;19.00;99.90
13229;DHT22;6680;53.220;10.402;2022-08-19T07:13:16;19.00;99.90
13229;DHT22;6680;53.220;10.402;2022-08-19T07:15:43;19.00;99.90
13229;DHT22;6680;53.220;10.402;2022-08-19T07:18:13;19.00;99.90
13229;DHT22;6680;53.220;10.402;2022-08-19T07:20:39;19.00;99.90
13229;DHT22;6680;53.220;10.402;2022-08-19T07:23:07;19.00;99.90
13229;DHT22;6680;53.220;10.402;2022-08-19T07:25:33;19.00;99.90
13229;DHT22;6680;53.220;10.402;2022-08-19T07:28:02;18.90;99.90
13229;DHT22;6680;53.220;10.402;2022-08-19T07:30:29;19.00;99.90
13229;DHT22;6680;53.220;10.402;2022-08-19T07:32:56;19.00;99.90
13229;DHT22;6680;53.220;10.402;2022-08-19T07:35:24;19.10;99.90
13229;DHT22;6680;53.220;10.402;2022-08-19T07:37:51;19.10;99.90
13229;DHT22;6680;53.220;10.402;2022-08-19T07:40:18;19.20;99.90
13229;DHT22;6680;53.220;10.402;2022-08-19T07:42:45;19.30;99.90
13229;DHT22;6680;53.220;10.402;2022-08-19T07:45:11;19.20;99.90
13229;DHT22;6680;53.220;10.402;2022-08-19T07:47:38;19.10;99.90
13229;DHT22;6680;53.220;10.402;2022-08-19T07:50:09;19.10;99.90
13229;DHT22;6680;53.220;10.402;2022-08-19T07:52:38;19.10;99.90
13229;DHT22;6680;53.220;10.402;2022-08-19T07:55:07;19.10;99.90
13229;DHT22;6680;53.220;10.402;2022-08-19T07:57:34;19.00;99.90
13229;DHT22;6680;53.220;10.402;2022-08-19T08:00:02;19.00;99.90
13229;DHT22;6680;53.220;10.402;2022-08-19T08:02:29;18.90;99.90
13229;DHT22;6680;53.220;10.402;2022-08-19T08:04:56;18.90;99.90
13229;DHT22;6680;53.220;10.402;2022-08-19T08:07:41;18.80;99.90
13229;DHT22;6680;53.220;10.402;2022-08-19T08:10:40;18.80;99.90
13229;DHT22;6680;53.220;10.402;2022-08-19T08:13:07;18.70;99.90
13229;DHT22;6680;53.220;10.402;2022-08-19T08:15:34;18.80;99.90
13229;DHT22;6680;53.220;10.402;2022-08-19T08:18:02;18.80;99.90
13229;DHT22;6680;53.220;10.402;2022-08-19T08:20:29;18.80;99.90
13229;DHT22;6680;53.220;10.402;2022-08-19T08:22:57;18.80;99.90
13229;DHT22;6680;53.220;10.402;2022-08-19T08:25:41;18.80;99.90
13229;DHT22;6680;53.220;10.402;2022-08-19T08:28:08;18.80;99.90
13229;DHT22;6680;53.220;10.402;2022-08-19T08:30:35;18.80;99.90
13229;DHT22;6680;53.220;10.402;2022-08-19T08:33:03;18.80;99.90
13229;DHT22;6680;53.220;10.402;2022-08-19T08:35:30;18.80;99.90
13229;DHT22;6680;53.220;10.402;2022-08-19T08:37:58;18.80;99.90
13229;DHT22;6680;53.220;10.402;2022-08-19T08:40:28;18.70;99.90
13229;DHT22;6680;53.220;10.402;2022-08-19T08:42:58;18.70;99.90
13229;DHT22;6680;53.220;10.402;2022-08-19T08:45:28;18.70;99.90
13229;DHT22;6680;53.220;10.402;2022-08-19T08:48:00;18.60;99.90
13229;DHT22;6680;53.220;10.402;2022-08-19T08:50:42;18.60;99.90
13229;DHT22;6680;53.220;10.402;2022-08-19T08:53:11;18.60;99.90
13229;DHT22;6680;53.220;10.402;2022-08-19T08:55:40;18.60;99.90
13229;DHT22;6680;53.220;10.402;2022-08-19T08:58:12;18.60;99.90
13229;DHT22;6680;53.220;10.402;2022-08-19T09:00:44;18.70;99.90
13229;DHT22;6680;53.220;10.402;2022-08-19T09:03:17;18.70;99.90
13229;DHT22;6680;53.220;10.402;2022-08-19T09:05:55;18.60;99.90
13229;DHT22;6680;53.220;10.402;2022-08-19T09:08:33;18.60;99.90
13229;DHT22;6680;53.220;10.402;2022-08-19T09:11:06;18.60;99.90
13229;DHT22;6680;53.220;10.402;2022-08-19T09:13:40;18.60;99.90
13229;DHT22;6680;53.220;10.402;2022-08-19T09:16:11;18.60;99.90
13229;DHT22;6680;53.220;10.402;2022-08-19T09:18:41;18.60;99.90
13229;DHT22;6680;53.220;10.402;2022-08-19T09:21:07;18.60;99.90
13229;DHT22;6680;53.220;10.402;2022-08-19T09:23:36;18.60;99.90
13229;DHT22;6680;53.220;10.402;2022-08-19T09:26:07;18.60;99.90
13229;DHT22;6680;53.220;10.402;2022-08-19T09:28:35;18.70;99.90
13229;DHT22;6680;53.220;10.402;2022-08-19T09:31:02;18.70;99.90
13229;DHT22;6680;53.220;10.402;2022-08-19T09:33:29;18.70;99.90
13229;DHT22;6680;53.220;10.402;2022-08-19T09:36:02;18.70;99.90
13229;DHT22;6680;53.220;10.402;2022-08-19T09:38:29;18.70;99.90
13229;DHT22;6680;53.220;10.402;2022-08-19T09:41:02;18.80;99.90
13229;DHT22;6680;53.220;10.402;2022-08-19T09:43:30;18.80;99.90
13229;DHT22;6680;53.220;10.402;2022-08-19T09:45:56;18.80;99.90
13229;DHT22;6680;53.220;10.402;2022-08-19T09:48:23;18.80;99.90
13229;DHT22;6680;53.220;10.402;2022-08-19T09:50:50;18.90;99.90
13229;DHT22;6680;53.220;10.402;2022-08-19T09:53:17;18.90;99.90
13229;DHT22;6680;53.220;10.402;2022-08-19T09:55:44;18.90;99.90
13229;DHT22;6680;53.220;10.402;2022-08-19T09:58:12;19.00;99.90
13229;DHT22;6680;53.220;10.402;2022-08-19T10:00:39;19.00;99.90
13229;DHT22;6680;53.220;10.402;2022-08-19T10:03:05;18.90;99.90
13229;DHT22;6680;53.220;10.402;2022-08-19T10:05:32;19.10;99.90
13229;DHT22;6680;53.220;10.402;2022-08-19T10:08:14;19.10;99.90
13229;DHT22;6680;53.220;10.402;2022-08-19T10:10:41;19.20;99.90
13229;DHT22;6680;53.220;10.402;2022-08-19T10:13:09;19.20;99.90
13229;DHT22;6680;53.220;10.402;2022-08-19T10:15:37;19.20;99.90
13229;DHT22;6680;53.220;10.402;2022-08-19T10:18:04;19.20;99.90
13229;DHT22;6680;53.220;10.402;2022-08-19T10:20:31;19.20;99.90
13229;DHT22;6680;53.220;10.402;2022-08-19T10:22:58;19.40;99.90
13229;DHT22;6680;53.220;10.402;2022-08-19T10:25:25;19.40;99.90
13229;DHT22;6680;53.220;10.402;2022-08-19T10:27:52;19.50;99.90
13229;DHT22;6680;53.220;10.402;2022-08-19T10:30:19;19.60;99.90
13229;DHT22;6680;53.220;10.402;2022-08-19T10:32:47;19.80;99.90
13229;DHT22;6680;53.220;10.402;2022-08-19T10:35:14;19.80;99.90
13229;DHT22;6680;53.220;10.402;2022-08-19T10:37:40;20.00;99.90
13229;DHT22;6680;53.220;10.402;2022-08-19T10:40:08;20.00;99.90
13229;DHT22;6680;53.220;10.402;2022-08-19T10:42:36;20.00;99.90
13229;DHT22;6680;53.220;10.402;2022-08-19T10:45:05;20.00;99.90
13229;DHT22;6680;53.220;10.402;2022-08-19T10:47:32;20.00;99.90
13229;DHT22;6680;53.220;10.402;2022-08-19T10:50:00;19.90;99.90
13229;DHT22;6680;53.220;10.402;2022-08-19T10:52:46;19.90;99.90
13229;DHT22;6680;53.220;10.402;2022-08-19T10:55:14;19.90;99.90
13229;DHT22;6680;53.220;10.402;2022-08-19T10:57:58;19.80;99.90
13229;DHT22;6680;53.220;10.402;2022-08-19T11:00:25;19.90;99.90
13229;DHT22;6680;53.220;10.402;2022-08-19T11:02:52;19.80;99.90
13229;DHT22;6680;53.220;10.402;2022-08-19T11:05:20;19.70;99.90
13229;DHT22;6680;53.220;10.402;2022-08-19T11:07:47;19.70;99.90
13229;DHT22;6680;53.220;10.402;2022-08-19T11:10:16;19.70;99.90
13229;DHT22;6680;53.220;10.402;2022-08-19T11:12:44;19.80;99.90
13229;DHT22;6680;53.220;10.402;2022-08-19T11:15:12;19.80;99.90
13229;DHT22;6680;53.220;10.402;2022-08-19T11:17:39;19.90;99.90
13229;DHT22;6680;53.220;10.402;2022-08-19T11:20:09;19.90;99.90
13229;DHT22;6680;53.220;10.402;2022-08-19T11:22:38;19.90;99.90
13229;DHT22;6680;53.220;10.402;2022-08-19T11:25:06;20.10;99.90
13229;DHT22;6680;53.220;10.402;2022-08-19T11:27:33;20.20;99.90
13229;DHT22;6680;53.220;10.402;2022-08-19T11:29:59;20.30;99.90
13229;DHT22;6680;53.220;10.402;2022-08-19T11:32:28;20.30;99.90
13229;DHT22;6680;53.220;10.402;2022-08-19T11:34:55;20.30;99.90
13229;DHT22;6680;53.220;10.402;2022-08-19T11:37:22;20.30;99.90
13229;DHT22;6680;53.220;10.402;2022-08-19T11:39:50;20.50;99.90
13229;DHT22;6680;53.220;10.402;2022-08-19T11:42:17;20.90;99.90
13229;DHT22;6680;53.220;10.402;2022-08-19T11:45:01;20.90;99.90
13229;DHT22;6680;53.220;10.402;2022-08-19T11:47:29;20.90;99.90
13229;DHT22;6680;53.220;10.402;2022-08-19T11:49:56;20.90;99.90
13229;DHT22;6680;53.220;10.402;2022-08-19T11:52:23;20.80;99.90
13229;DHT22;6680;53.220;10.402;2022-08-19T11:54:51;20.80;99.90
13229;DHT22;6680;53.220;10.402;2022-08-19T11:57:17;20.90;99.90
13229;DHT22;6680;53.220;10.402;2022-08-19T11:59:48;20.90;99.90
13229;DHT22;6680;53.220;10.402;2022-08-19T12:02:15;21.20;99.90
13229;DHT22;6680;53.220;10.402;2022-08-19T12:04:42;20.90;99.90
13229;DHT22;6680;53.220;10.402;2022-08-19T12:07:09;20.80;99.90
13229;DHT22;6680;53.220;10.402;2022-08-19T12:09:35;20.90;99.90
13229;DHT22;6680;53.220;10.402;2022-08-19T12:12:06;20.90;99.90
13229;DHT22;6680;53.220;10.402;2022-08-19T12:14:34;21.10;99.90
13229;DHT22;6680;53.220;10.402;2022-08-19T12:17:00;21.10;99.90
13229;DHT22;6680;53.220;10.402;2022-08-19T12:19:29;21.20;99.90
13229;DHT22;6680;53.220;10.402;2022-08-19T12:21:59;21.40;99.90
13229;DHT22;6680;53.220;10.402;2022-08-19T12:24:26;21.40;99.90
13229;DHT22;6680;53.220;10.402;2022-08-19T12:26:53;21.50;99.90
13229;DHT22;6680;53.220;10.402;2022-08-19T12:29:22;21.60;99.90
13229;DHT22;6680;53.220;10.402;2022-08-19T12:31:49;21.60;99.90
13229;DHT22;6680;53.220;10.402;2022-08-19T12:34:16;21.60;99.90
13229;DHT22;6680;53.220;10.402;2022-08-19T12:36:44;21.50;99.90
13229;DHT22;6680;53.220;10.402;2022-08-19T12:39:14;21.50;99.90
13229;DHT22;6680;53.220;10.402;2022-08-19T12:41:41;21.40;99.90
13229;DHT22;6680;53.220;10.402;2022-08-19T12:44:07;21.50;99.90
13229;DHT22;6680;53.220;10.402;2022-08-19T12:46:35;21.50;99.90
13229;DHT22;6680;53.220;10.402;2022-08-19T12:49:02;21.60;99.90
13229;DHT22;6680;53.220;10.402;2022-08-19T12:51:29;21.50;99.90
13229;DHT22;6680;53.220;10.402;2022-08-19T12:53:57;21.50;99.90
13229;DHT22;6680;53.220;10.402;2022-08-19T12:56:24;21.50;99.90
13229;DHT22;6680;53.220;10.402;2022-08-19T12:58:51;21.50;99.90
13229;DHT22;6680;53.220;10.402;2022-08-19T13:01:18;21.50;99.90
13229;DHT22;6680;53.220;10.402;2022-08-19T13:03:46;21.50;99.90
13229;DHT22;6680;53.220;10.402;2022-08-19T13:06:13;21.50;99.90
13229;DHT22;6680;53.220;10.402;2022-08-19T13:08:40;21.60;99.90
13229;DHT22;6680;53.220;10.402;2022-08-19T13:11:09;21.60;99.90
13229;DHT22;6680;53.220;10.402;2022-08-19T13:13:38;21.80;99.90
13229;DHT22;6680;53.220;10.402;2022-08-19T13:16:06;21.70;99.90
13229;DHT22;6680;53.220;10.402;2022-08-19T13:18:33;21.80;99.90
13229;DHT22;6680;53.220;10.402;2022-08-19T13:21:03;21.90;99.90
13229;DHT22;6680;53.220;10.402;2022-08-19T13:23:30;21.90;99.90
13229;DHT22;6680;53.220;10.402;2022-08-19T13:25:57;22.00;99.90
13229;DHT22;6680;53.220;10.402;2022-08-19T13:28:24;21.90;99.90
13229;DHT22;6680;53.220;10.402;2022-08-19T13:30:51;21.90;99.90
13229;DHT22;6680;53.220;10.402;2022-08-19T13:33:35;22.00;99.90
13229;DHT22;6680;53.220;10.402;2022-08-19T13:36:03;22.10;99.90
13229;DHT22;6680;53.220;10.402;2022-08-19T13:38:33;22.30;99.90
13229;DHT22;6680;53.220;10.402;2022-08-19T13:41:05;22.40;99.90
13229;DHT22;6680;53.220;10.402;2022-08-19T13:43:32;22.60;99.90
13229;DHT22;6680;53.220;10.402;2022-08-19T13:45:59;22.70;99.90
13229;DHT22;6680;53.220;10.402;2022-08-19T13:48:26;22.80;99.90
13229;DHT22;6680;53.220;10.402;2022-08-19T13:50:53;22.90;99.90
13229;DHT22;6680;53.220;10.402;2022-08-19T13:53:21;23.00;99.90
13229;DHT22;6680;53.220;10.402;2022-08-19T13:55:48;23.20;99.90
13229;DHT22;6680;53.220;10.402;2022-08-19T13:58:16;23.40;99.90
13229;DHT22;6680;53.220;10.402;2022-08-19T14:00:44;23.60;99.90
13229;DHT22;6680;53.220;10.402;2022-08-19T14:03:11;23.90;99.90
13229;DHT22;6680;53.220;10.402;2022-08-19T14:05:38;24.10;99.90
13229;DHT22;6680;53.220;10.402;2022-08-19T14:08:05;24.10;99.90
13229;DHT22;6680;53.220;10.402;2022-08-19T14:10:33;24.00;99.90
13229;DHT22;6680;53.220;10.402;2022-08-19T14:13:02;24.10;99.90
13229;DHT22;6680;53.220;10.402;2022-08-19T14:15:29;24.00;99.90
13229;DHT22;6680;53.220;10.402;2022-08-19T14:17:56;23.90;99.90
13229;DHT22;6680;53.220;10.402;2022-08-19T14:20:23;23.80;99.90
13229;DHT22;6680;53.220;10.402;2022-08-19T14:22:50;23.80;99.90
13229;DHT22;6680;53.220;10.402;2022-08-19T14:25:21;23.70;99.90
13229;DHT22;6680;53.220;10.402;2022-08-19T14:27:49;23.70;99.90
13229;DHT22;6680;53.220;10.402;2022-08-19T14:30:19;23.60;99.90
13229;DHT22;6680;53.220;10.402;2022-08-19T14:32:46;23.50;99.90
13229;DHT22;6680;53.220;10.402;2022-08-19T14:35:14;23.50;99.90
13229;DHT22;6680;53.220;10.402;2022-08-19T14:37:42;23.50;99.90
13229;DHT22;6680;53.220;10.402;2022-08-19T14:40:11;23.50;99.90
13229;DHT22;6680;53.220;10.402;2022-08-19T14:42:38;23.60;99.90
13229;DHT22;6680;53.220;10.402;2022-08-19T14:45:07;23.60;99.90
13229;DHT22;6680;53.220;10.402;2022-08-19T14:47:34;23.70;99.90
13229;DHT22;6680;53.220;10.402;2022-08-19T14:50:01;23.90;99.90
13229;DHT22;6680;53.220;10.402;2022-08-19T14:52:28;24.00;99.90
13229;DHT22;6680;53.220;10.402;2022-08-19T14:54:54;24.10;99.90
13229;DHT22;6680;53.220;10.402;2022-08-19T14:57:21;24.10;99.90
13229;DHT22;6680;53.220;10.402;2022-08-19T14:59:47;24.10;99.90
13229;DHT22;6680;53.220;10.402;2022-08-19T15:02:16;24.10;99.90
13229;DHT22;6680;53.220;10.402;2022-08-19T15:04:43;24.20;99.90
13229;DHT22;6680;53.220;10.402;2022-08-19T15:07:10;24.20;99.90
13229;DHT22;6680;53.220;10.402;2022-08-19T15:09:36;24.10;99.90
13229;DHT22;6680;53.220;10.402;2022-08-19T15:12:03;24.10;99.90
13229;DHT22;6680;53.220;10.402;2022-08-19T15:14:30;24.10;99.90
13229;DHT22;6680;53.220;10.402;2022-08-19T15:17:00;24.10;99.90
13229;DHT22;6680;53.220;10.402;2022-08-19T15:19:30;24.10;99.90
13229;DHT22;6680;53.220;10.402;2022-08-19T15:21:57;24.10;99.90
13229;DHT22;6680;53.220;10.402;2022-08-19T15:24:24;24.10;99.90
13229;DHT22;6680;53.220;10.402;2022-08-19T15:26:51;24.10;99.90
13229;DHT22;6680;53.220;10.402;2022-08-19T15:29:18;24.10;99.90
13229;DHT22;6680;53.220;10.402;2022-08-19T15:31:45;24.20;99.90
13229;DHT22;6680;53.220;10.402;2022-08-19T15:34:12;24.30;99.90
13229;DHT22;6680;53.220;10.402;2022-08-19T15:36:40;24.30;99.90